Kingstown, North Carolina
Current Conditions -  °F | °C
As of 5:55 PM on Tuesday 21 Oct 2014 (Local Time) from KEHO Reporting Station
Scattered Clouds Scattered Clouds  
Wind Chill: 69°   Ceiling: Unl
Heat Index: 69°   Visibility: 10mi
Dew Point: 44°   Wind: 8mph
Humidity: 40%   Direction: 280°W
Pressure: 29.9"   Gusts: NA
Location:  35.3693°N, 81.5992°W
Report Text: KEHO 212155Z AUTO 28007KT 10SM SCT075 21/06 A2990 RMK AO2 T02050064
Loading
Personal Weather Stations






























Interactive Weather Map
Tropical Storm Tracking
New forecast layout! Learn more

10-Day Weather Forecast

Advertisements
Track Severe Weather on mobile